sensor_id;sensor_type;location;lat;lon;timestamp;P1;durP1;ratioP1;P2;durP2;ratioP2
52786;SDS011;38661;53.152;5.846;2023-07-16T00:02:03;15.60;;;6.15;;
52786;SDS011;38661;53.152;5.846;2023-07-16T00:04:30;16.75;;;6.13;;
52786;SDS011;38661;53.152;5.846;2023-07-16T00:06:56;16.27;;;6.00;;
52786;SDS011;38661;53.152;5.846;2023-07-16T00:09:22;14.70;;;5.90;;
52786;SDS011;38661;53.152;5.846;2023-07-16T00:11:49;25.00;;;6.93;;
52786;SDS011;38661;53.152;5.846;2023-07-16T00:14:14;16.63;;;5.70;;
52786;SDS011;38661;53.152;5.846;2023-07-16T00:16:40;13.85;;;5.65;;
52786;SDS011;38661;53.152;5.846;2023-07-16T00:19:06;15.18;;;6.18;;
52786;SDS011;38661;53.152;5.846;2023-07-16T00:21:31;18.17;;;4.97;;
52786;SDS011;38661;53.152;5.846;2023-07-16T00:23:57;13.75;;;4.97;;
52786;SDS011;38661;53.152;5.846;2023-07-16T00:26:24;12.77;;;5.40;;
52786;SDS011;38661;53.152;5.846;2023-07-16T00:28:49;10.05;;;4.28;;
52786;SDS011;38661;53.152;5.846;2023-07-16T00:31:15;12.20;;;4.43;;
52786;SDS011;38661;53.152;5.846;2023-07-16T00:33:41;11.15;;;3.80;;
52786;SDS011;38661;53.152;5.846;2023-07-16T00:36:06;15.50;;;5.13;;
52786;SDS011;38661;53.152;5.846;2023-07-16T00:38:32;11.25;;;4.00;;
52786;SDS011;38661;53.152;5.846;2023-07-16T00:40:58;11.98;;;5.15;;
52786;SDS011;38661;53.152;5.846;2023-07-16T00:43:23;16.58;;;4.97;;
52786;SDS011;38661;53.152;5.846;2023-07-16T00:45:49;16.15;;;4.28;;
52786;SDS011;38661;53.152;5.846;2023-07-16T00:48:15;13.25;;;4.75;;
52786;SDS011;38661;53.152;5.846;2023-07-16T00:50:41;11.90;;;4.25;;
52786;SDS011;38661;53.152;5.846;2023-07-16T00:53:07;10.80;;;4.60;;
52786;SDS011;38661;53.152;5.846;2023-07-16T00:55:37;13.80;;;4.75;;
52786;SDS011;38661;53.152;5.846;2023-07-16T00:58:07;14.75;;;4.45;;
52786;SDS011;38661;53.152;5.846;2023-07-16T01:00:37;11.07;;;4.32;;
52786;SDS011;38661;53.152;5.846;2023-07-16T01:03:04;14.27;;;5.22;;
52786;SDS011;38661;53.152;5.846;2023-07-16T01:05:45;14.70;;;4.78;;
52786;SDS011;38661;53.152;5.846;2023-07-16T01:11:01;12.27;;;4.35;;
52786;SDS011;38661;53.152;5.846;2023-07-16T01:13:28;10.05;;;4.45;;
52786;SDS011;38661;53.152;5.846;2023-07-16T01:15:54;14.77;;;4.35;;
52786;SDS011;38661;53.152;5.846;2023-07-16T01:18:20;12.45;;;4.80;;
52786;SDS011;38661;53.152;5.846;2023-07-16T01:20:46;15.45;;;4.57;;
52786;SDS011;38661;53.152;5.846;2023-07-16T01:28:22;11.15;;;4.57;;
52786;SDS011;38661;53.152;5.846;2023-07-16T01:33:28;11.57;;;4.65;;
52786;SDS011;38661;53.152;5.846;2023-07-16T01:35:54;12.20;;;5.60;;
52786;SDS011;38661;53.152;5.846;2023-07-16T01:38:21;14.85;;;5.45;;
52786;SDS011;38661;53.152;5.846;2023-07-16T01:40:48;10.85;;;4.82;;
52786;SDS011;38661;53.152;5.846;2023-07-16T01:43:14;15.98;;;5.15;;
52786;SDS011;38661;53.152;5.846;2023-07-16T01:45:40;17.42;;;6.40;;
52786;SDS011;38661;53.152;5.846;2023-07-16T01:48:09;16.15;;;4.68;;
52786;SDS011;38661;53.152;5.846;2023-07-16T01:50:40;15.38;;;4.68;;
52786;SDS011;38661;53.152;5.846;2023-07-16T01:53:06;14.30;;;3.92;;
52786;SDS011;38661;53.152;5.846;2023-07-16T01:55:31;16.25;;;4.03;;
52786;SDS011;38661;53.152;5.846;2023-07-16T01:57:57;9.48;;;3.72;;
52786;SDS011;38661;53.152;5.846;2023-07-16T02:00:23;11.07;;;4.05;;
52786;SDS011;38661;53.152;5.846;2023-07-16T02:02:48;10.45;;;3.67;;
52786;SDS011;38661;53.152;5.846;2023-07-16T02:05:14;10.23;;;3.63;;
52786;SDS011;38661;53.152;5.846;2023-07-16T02:07:41;10.30;;;3.63;;
52786;SDS011;38661;53.152;5.846;2023-07-16T02:10:07;14.38;;;4.15;;
52786;SDS011;38661;53.152;5.846;2023-07-16T02:12:33;13.75;;;3.63;;
52786;SDS011;38661;53.152;5.846;2023-07-16T02:14:59;10.65;;;3.42;;
52786;SDS011;38661;53.152;5.846;2023-07-16T02:17:24;11.65;;;4.43;;
52786;SDS011;38661;53.152;5.846;2023-07-16T02:19:50;9.82;;;3.30;;
52786;SDS011;38661;53.152;5.846;2023-07-16T02:22:16;11.75;;;3.90;;
52786;SDS011;38661;53.152;5.846;2023-07-16T02:24:41;12.23;;;3.63;;
52786;SDS011;38661;53.152;5.846;2023-07-16T02:27:07;8.50;;;3.83;;
52786;SDS011;38661;53.152;5.846;2023-07-16T02:29:33;9.73;;;4.13;;
52786;SDS011;38661;53.152;5.846;2023-07-16T02:31:58;13.63;;;5.07;;
52786;SDS011;38661;53.152;5.846;2023-07-16T02:34:24;11.77;;;5.15;;
52786;SDS011;38661;53.152;5.846;2023-07-16T02:36:50;16.50;;;6.00;;
52786;SDS011;38661;53.152;5.846;2023-07-16T02:39:15;12.77;;;6.75;;
52786;SDS011;38661;53.152;5.846;2023-07-16T02:41:41;12.30;;;6.15;;
52786;SDS011;38661;53.152;5.846;2023-07-16T02:44:07;12.95;;;6.00;;
52786;SDS011;38661;53.152;5.846;2023-07-16T02:46:33;17.08;;;6.60;;
52786;SDS011;38661;53.152;5.846;2023-07-16T02:48:59;14.25;;;6.32;;
52786;SDS011;38661;53.152;5.846;2023-07-16T02:51:25;10.38;;;5.60;;
52786;SDS011;38661;53.152;5.846;2023-07-16T02:53:51;15.90;;;5.60;;
52786;SDS011;38661;53.152;5.846;2023-07-16T02:56:17;14.23;;;6.07;;
52786;SDS011;38661;53.152;5.846;2023-07-16T02:58:43;14.80;;;6.63;;
52786;SDS011;38661;53.152;5.846;2023-07-16T03:01:08;10.93;;;5.72;;
52786;SDS011;38661;53.152;5.846;2023-07-16T03:03:34;13.65;;;5.53;;
52786;SDS011;38661;53.152;5.846;2023-07-16T03:06:00;16.58;;;6.53;;
52786;SDS011;38661;53.152;5.846;2023-07-16T03:08:26;12.80;;;6.50;;
52786;SDS011;38661;53.152;5.846;2023-07-16T03:10:55;14.90;;;6.80;;
52786;SDS011;38661;53.152;5.846;2023-07-16T03:13:21;12.88;;;6.05;;
52786;SDS011;38661;53.152;5.846;2023-07-16T03:15:47;19.02;;;6.10;;
52786;SDS011;38661;53.152;5.846;2023-07-16T03:18:13;15.00;;;6.18;;
52786;SDS011;38661;53.152;5.846;2023-07-16T03:20:38;8.75;;;4.55;;
52786;SDS011;38661;53.152;5.846;2023-07-16T03:23:04;16.50;;;6.55;;
52786;SDS011;38661;53.152;5.846;2023-07-16T03:25:30;32.97;;;8.38;;
52786;SDS011;38661;53.152;5.846;2023-07-16T03:27:56;17.77;;;7.45;;
52786;SDS011;38661;53.152;5.846;2023-07-16T03:30:21;17.60;;;7.43;;
52786;SDS011;38661;53.152;5.846;2023-07-16T03:32:47;13.77;;;6.78;;
52786;SDS011;38661;53.152;5.846;2023-07-16T03:35:13;13.85;;;7.30;;
52786;SDS011;38661;53.152;5.846;2023-07-16T03:37:38;12.45;;;6.70;;
52786;SDS011;38661;53.152;5.846;2023-07-16T03:40:14;13.38;;;6.18;;
52786;SDS011;38661;53.152;5.846;2023-07-16T03:42:40;17.83;;;6.45;;
52786;SDS011;38661;53.152;5.846;2023-07-16T03:45:07;18.15;;;6.82;;
52786;SDS011;38661;53.152;5.846;2023-07-16T03:47:33;10.88;;;6.40;;
52786;SDS011;38661;53.152;5.846;2023-07-16T03:49:59;17.77;;;7.40;;
52786;SDS011;38661;53.152;5.846;2023-07-16T03:52:24;16.67;;;7.30;;
52786;SDS011;38661;53.152;5.846;2023-07-16T03:54:51;13.70;;;6.22;;
52786;SDS011;38661;53.152;5.846;2023-07-16T03:57:17;14.38;;;7.45;;
52786;SDS011;38661;53.152;5.846;2023-07-16T03:59:43;16.42;;;7.97;;
52786;SDS011;38661;53.152;5.846;2023-07-16T04:02:09;12.10;;;7.28;;
52786;SDS011;38661;53.152;5.846;2023-07-16T04:04:34;16.42;;;6.63;;
52786;SDS011;38661;53.152;5.846;2023-07-16T04:07:00;13.13;;;7.35;;
52786;SDS011;38661;53.152;5.846;2023-07-16T04:09:26;20.70;;;7.20;;
52786;SDS011;38661;53.152;5.846;2023-07-16T04:11:51;15.25;;;7.05;;
52786;SDS011;38661;53.152;5.846;2023-07-16T04:14:17;12.15;;;6.40;;
52786;SDS011;38661;53.152;5.846;2023-07-16T04:16:43;18.63;;;6.20;;
52786;SDS011;38661;53.152;5.846;2023-07-16T04:19:09;16.05;;;6.38;;
52786;SDS011;38661;53.152;5.846;2023-07-16T04:21:34;13.07;;;7.25;;
52786;SDS011;38661;53.152;5.846;2023-07-16T04:24:01;17.65;;;7.40;;
52786;SDS011;38661;53.152;5.846;2023-07-16T04:26:28;14.10;;;8.20;;
52786;SDS011;38661;53.152;5.846;2023-07-16T04:28:53;13.82;;;6.95;;
52786;SDS011;38661;53.152;5.846;2023-07-16T04:31:19;15.15;;;7.18;;
52786;SDS011;38661;53.152;5.846;2023-07-16T04:33:45;14.25;;;7.32;;
52786;SDS011;38661;53.152;5.846;2023-07-16T04:36:11;15.43;;;7.40;;
52786;SDS011;38661;53.152;5.846;2023-07-16T04:38:36;17.83;;;7.50;;
52786;SDS011;38661;53.152;5.846;2023-07-16T04:41:02;15.65;;;6.75;;
52786;SDS011;38661;53.152;5.846;2023-07-16T04:43:28;14.25;;;6.40;;
52786;SDS011;38661;53.152;5.846;2023-07-16T04:45:53;13.35;;;6.20;;
52786;SDS011;38661;53.152;5.846;2023-07-16T04:48:19;14.38;;;6.28;;
52786;SDS011;38661;53.152;5.846;2023-07-16T04:50:45;15.60;;;6.68;;
52786;SDS011;38661;53.152;5.846;2023-07-16T04:53:10;13.68;;;7.00;;
52786;SDS011;38661;53.152;5.846;2023-07-16T04:55:37;12.65;;;6.63;;
52786;SDS011;38661;53.152;5.846;2023-07-16T04:58:03;15.60;;;6.88;;
52786;SDS011;38661;53.152;5.846;2023-07-16T05:00:29;12.35;;;6.82;;
52786;SDS011;38661;53.152;5.846;2023-07-16T05:02:57;16.13;;;7.20;;
52786;SDS011;38661;53.152;5.846;2023-07-16T05:05:22;20.58;;;6.82;;
52786;SDS011;38661;53.152;5.846;2023-07-16T05:07:48;15.63;;;7.55;;
52786;SDS011;38661;53.152;5.846;2023-07-16T05:10:14;14.45;;;6.85;;
52786;SDS011;38661;53.152;5.846;2023-07-16T05:12:39;15.57;;;7.35;;
52786;SDS011;38661;53.152;5.846;2023-07-16T05:15:05;14.15;;;6.38;;
52786;SDS011;38661;53.152;5.846;2023-07-16T05:17:31;13.52;;;7.47;;
52786;SDS011;38661;53.152;5.846;2023-07-16T05:19:57;15.68;;;6.97;;
52786;SDS011;38661;53.152;5.846;2023-07-16T05:22:23;13.30;;;6.82;;
52786;SDS011;38661;53.152;5.846;2023-07-16T05:24:48;17.58;;;7.82;;
52786;SDS011;38661;53.152;5.846;2023-07-16T05:27:14;18.23;;;7.28;;
52786;SDS011;38661;53.152;5.846;2023-07-16T05:29:40;15.27;;;8.25;;
52786;SDS011;38661;53.152;5.846;2023-07-16T05:32:06;15.55;;;7.57;;
52786;SDS011;38661;53.152;5.846;2023-07-16T05:34:32;14.25;;;6.80;;
52786;SDS011;38661;53.152;5.846;2023-07-16T05:36:58;15.80;;;7.65;;
52786;SDS011;38661;53.152;5.846;2023-07-16T05:39:24;16.00;;;7.22;;
52786;SDS011;38661;53.152;5.846;2023-07-16T05:41:50;13.00;;;6.30;;
52786;SDS011;38661;53.152;5.846;2023-07-16T05:44:16;12.57;;;6.53;;
52786;SDS011;38661;53.152;5.846;2023-07-16T05:46:41;11.25;;;6.18;;
52786;SDS011;38661;53.152;5.846;2023-07-16T05:49:07;16.65;;;6.95;;
52786;SDS011;38661;53.152;5.846;2023-07-16T05:51:33;21.95;;;6.32;;
52786;SDS011;38661;53.152;5.846;2023-07-16T05:53:58;12.48;;;6.50;;
52786;SDS011;38661;53.152;5.846;2023-07-16T05:56:24;16.45;;;6.07;;
52786;SDS011;38661;53.152;5.846;2023-07-16T05:58:50;14.60;;;6.63;;
52786;SDS011;38661;53.152;5.846;2023-07-16T06:01:16;11.32;;;5.40;;
52786;SDS011;38661;53.152;5.846;2023-07-16T06:03:41;13.95;;;5.50;;
52786;SDS011;38661;53.152;5.846;2023-07-16T06:06:10;13.20;;;5.50;;
52786;SDS011;38661;53.152;5.846;2023-07-16T06:08:36;14.38;;;6.65;;
52786;SDS011;38661;53.152;5.846;2023-07-16T06:11:01;14.90;;;6.28;;
52786;SDS011;38661;53.152;5.846;2023-07-16T06:13:29;13.23;;;6.25;;
52786;SDS011;38661;53.152;5.846;2023-07-16T06:15:55;13.55;;;6.55;;
52786;SDS011;38661;53.152;5.846;2023-07-16T06:18:20;16.10;;;6.28;;
52786;SDS011;38661;53.152;5.846;2023-07-16T06:20:46;11.60;;;6.28;;
52786;SDS011;38661;53.152;5.846;2023-07-16T06:23:12;11.85;;;6.18;;
52786;SDS011;38661;53.152;5.846;2023-07-16T06:25:38;17.88;;;6.15;;
52786;SDS011;38661;53.152;5.846;2023-07-16T06:28:09;17.83;;;6.82;;
52786;SDS011;38661;53.152;5.846;2023-07-16T06:30:35;11.07;;;5.88;;
52786;SDS011;38661;53.152;5.846;2023-07-16T06:33:02;16.17;;;6.30;;
52786;SDS011;38661;53.152;5.846;2023-07-16T06:35:27;13.20;;;6.43;;
52786;SDS011;38661;53.152;5.846;2023-07-16T06:37:53;11.10;;;6.60;;
52786;SDS011;38661;53.152;5.846;2023-07-16T06:40:19;10.10;;;5.78;;
52786;SDS011;38661;53.152;5.846;2023-07-16T06:42:44;12.75;;;6.03;;
52786;SDS011;38661;53.152;5.846;2023-07-16T06:45:10;13.25;;;6.72;;
52786;SDS011;38661;53.152;5.846;2023-07-16T06:47:36;12.75;;;6.25;;
52786;SDS011;38661;53.152;5.846;2023-07-16T06:50:02;11.45;;;6.32;;
52786;SDS011;38661;53.152;5.846;2023-07-16T06:52:28;16.73;;;6.28;;
52786;SDS011;38661;53.152;5.846;2023-07-16T06:54:54;11.05;;;5.72;;
52786;SDS011;38661;53.152;5.846;2023-07-16T06:57:20;13.85;;;6.28;;
52786;SDS011;38661;53.152;5.846;2023-07-16T06:59:46;14.30;;;5.95;;
52786;SDS011;38661;53.152;5.846;2023-07-16T07:02:12;15.05;;;5.93;;
52786;SDS011;38661;53.152;5.846;2023-07-16T07:04:38;13.85;;;6.72;;
52786;SDS011;38661;53.152;5.846;2023-07-16T07:07:04;15.10;;;7.15;;
52786;SDS011;38661;53.152;5.846;2023-07-16T07:09:30;12.10;;;5.97;;
52786;SDS011;38661;53.152;5.846;2023-07-16T07:11:55;15.77;;;6.40;;
52786;SDS011;38661;53.152;5.846;2023-07-16T07:14:21;16.13;;;6.60;;
52786;SDS011;38661;53.152;5.846;2023-07-16T07:16:47;17.58;;;7.03;;
52786;SDS011;38661;53.152;5.846;2023-07-16T07:19:12;18.33;;;7.38;;
52786;SDS011;38661;53.152;5.846;2023-07-16T07:21:38;16.80;;;6.82;;
52786;SDS011;38661;53.152;5.846;2023-07-16T07:24:04;18.15;;;7.55;;
52786;SDS011;38661;53.152;5.846;2023-07-16T07:26:30;12.52;;;5.80;;
52786;SDS011;38661;53.152;5.846;2023-07-16T07:28:56;11.70;;;4.50;;
52786;SDS011;38661;53.152;5.846;2023-07-16T07:31:22;16.98;;;5.78;;
52786;SDS011;38661;53.152;5.846;2023-07-16T07:33:48;12.50;;;5.05;;
52786;SDS011;38661;53.152;5.846;2023-07-16T07:36:13;12.23;;;6.38;;
52786;SDS011;38661;53.152;5.846;2023-07-16T07:38:39;11.63;;;5.65;;
52786;SDS011;38661;53.152;5.846;2023-07-16T07:41:05;10.60;;;5.22;;
52786;SDS011;38661;53.152;5.846;2023-07-16T07:43:31;12.77;;;5.07;;
52786;SDS011;38661;53.152;5.846;2023-07-16T07:45:57;12.25;;;5.30;;
52786;SDS011;38661;53.152;5.846;2023-07-16T07:48:23;8.48;;;4.78;;
52786;SDS011;38661;53.152;5.846;2023-07-16T07:50:49;10.77;;;4.78;;
52786;SDS011;38661;53.152;5.846;2023-07-16T07:53:15;12.52;;;5.65;;
52786;SDS011;38661;53.152;5.846;2023-07-16T07:55:43;11.50;;;5.43;;
52786;SDS011;38661;53.152;5.846;2023-07-16T07:58:09;13.18;;;6.07;;
52786;SDS011;38661;53.152;5.846;2023-07-16T08:00:35;10.63;;;4.65;;
52786;SDS011;38661;53.152;5.846;2023-07-16T08:03:00;11.45;;;5.15;;
52786;SDS011;38661;53.152;5.846;2023-07-16T08:05:26;9.02;;;4.80;;
52786;SDS011;38661;53.152;5.846;2023-07-16T08:07:52;12.70;;;6.20;;
52786;SDS011;38661;53.152;5.846;2023-07-16T08:10:18;11.32;;;6.10;;
52786;SDS011;38661;53.152;5.846;2023-07-16T08:12:44;13.70;;;6.63;;
52786;SDS011;38661;53.152;5.846;2023-07-16T08:15:10;12.50;;;5.80;;
52786;SDS011;38661;53.152;5.846;2023-07-16T08:17:43;10.90;;;5.53;;
52786;SDS011;38661;53.152;5.846;2023-07-16T08:20:10;13.85;;;6.22;;
52786;SDS011;38661;53.152;5.846;2023-07-16T08:22:36;11.50;;;5.97;;
52786;SDS011;38661;53.152;5.846;2023-07-16T08:25:03;19.38;;;6.47;;
52786;SDS011;38661;53.152;5.846;2023-07-16T08:27:29;16.60;;;6.93;;
52786;SDS011;38661;53.152;5.846;2023-07-16T08:29:55;12.20;;;5.30;;
52786;SDS011;38661;53.152;5.846;2023-07-16T08:32:21;19.65;;;6.13;;
52786;SDS011;38661;53.152;5.846;2023-07-16T08:34:47;12.38;;;6.00;;
52786;SDS011;38661;53.152;5.846;2023-07-16T08:37:13;11.50;;;4.93;;
52786;SDS011;38661;53.152;5.846;2023-07-16T08:39:39;16.00;;;5.45;;
52786;SDS011;38661;53.152;5.846;2023-07-16T08:42:05;13.88;;;5.47;;
52786;SDS011;38661;53.152;5.846;2023-07-16T08:44:33;8.80;;;4.68;;
52786;SDS011;38661;53.152;5.846;2023-07-16T08:47:00;15.45;;;5.63;;
52786;SDS011;38661;53.152;5.846;2023-07-16T08:49:26;15.18;;;5.05;;
52786;SDS011;38661;53.152;5.846;2023-07-16T08:51:55;13.98;;;5.18;;
52786;SDS011;38661;53.152;5.846;2023-07-16T08:54:21;11.45;;;4.68;;
52786;SDS011;38661;53.152;5.846;2023-07-16T08:56:47;13.07;;;4.97;;
52786;SDS011;38661;53.152;5.846;2023-07-16T08:59:17;10.15;;;4.15;;
52786;SDS011;38661;53.152;5.846;2023-07-16T09:01:43;15.23;;;5.30;;
52786;SDS011;38661;53.152;5.846;2023-07-16T09:04:09;14.57;;;5.50;;
52786;SDS011;38661;53.152;5.846;2023-07-16T09:06:35;10.25;;;5.68;;
52786;SDS011;38661;53.152;5.846;2023-07-16T09:09:01;11.18;;;6.28;;
52786;SDS011;38661;53.152;5.846;2023-07-16T09:11:26;14.75;;;6.10;;
52786;SDS011;38661;53.152;5.846;2023-07-16T09:13:52;10.50;;;5.60;;
52786;SDS011;38661;53.152;5.846;2023-07-16T09:16:18;17.17;;;6.32;;
52786;SDS011;38661;53.152;5.846;2023-07-16T09:18:45;11.82;;;5.05;;
52786;SDS011;38661;53.152;5.846;2023-07-16T09:21:11;9.93;;;4.75;;
52786;SDS011;38661;53.152;5.846;2023-07-16T09:23:37;11.85;;;5.63;;
52786;SDS011;38661;53.152;5.846;2023-07-16T09:26:03;12.10;;;5.20;;
52786;SDS011;38661;53.152;5.846;2023-07-16T09:28:32;13.20;;;5.05;;
52786;SDS011;38661;53.152;5.846;2023-07-16T09:31:06;12.38;;;5.50;;
52786;SDS011;38661;53.152;5.846;2023-07-16T09:33:32;13.35;;;5.43;;
52786;SDS011;38661;53.152;5.846;2023-07-16T09:35:58;13.45;;;5.38;;
52786;SDS011;38661;53.152;5.846;2023-07-16T09:38:25;12.05;;;6.32;;
52786;SDS011;38661;53.152;5.846;2023-07-16T09:40:52;11.43;;;6.15;;
52786;SDS011;38661;53.152;5.846;2023-07-16T09:43:19;9.63;;;6.13;;
52786;SDS011;38661;53.152;5.846;2023-07-16T09:45:46;9.95;;;5.22;;
52786;SDS011;38661;53.152;5.846;2023-07-16T09:48:12;10.05;;;4.93;;
52786;SDS011;38661;53.152;5.846;2023-07-16T09:50:38;12.95;;;5.78;;
52786;SDS011;38661;53.152;5.846;2023-07-16T09:53:11;13.52;;;5.93;;
52786;SDS011;38661;53.152;5.846;2023-07-16T09:55:39;8.77;;;5.43;;
52786;SDS011;38661;53.152;5.846;2023-07-16T09:58:10;11.13;;;5.28;;
52786;SDS011;38661;53.152;5.846;2023-07-16T10:00:37;13.05;;;5.32;;
52786;SDS011;38661;53.152;5.846;2023-07-16T10:03:05;12.02;;;4.95;;
52786;SDS011;38661;53.152;5.846;2023-07-16T10:05:35;14.38;;;5.38;;
52786;SDS011;38661;53.152;5.846;2023-07-16T10:08:04;14.48;;;5.65;;
52786;SDS011;38661;53.152;5.846;2023-07-16T10:10:41;11.10;;;4.80;;
52786;SDS011;38661;53.152;5.846;2023-07-16T10:13:11;10.85;;;5.07;;
52786;SDS011;38661;53.152;5.846;2023-07-16T10:15:38;12.13;;;5.28;;
52786;SDS011;38661;53.152;5.846;2023-07-16T10:18:04;9.85;;;5.00;;
52786;SDS011;38661;53.152;5.846;2023-07-16T10:20:31;10.05;;;4.38;;
52786;SDS011;38661;53.152;5.846;2023-07-16T10:22:58;13.73;;;4.82;;
52786;SDS011;38661;53.152;5.846;2023-07-16T10:25:36;12.55;;;5.15;;
52786;SDS011;38661;53.152;5.846;2023-07-16T10:28:01;10.82;;;4.75;;
52786;SDS011;38661;53.152;5.846;2023-07-16T10:30:27;16.95;;;5.07;;
52786;SDS011;38661;53.152;5.846;2023-07-16T10:32:53;13.68;;;4.80;;
52786;SDS011;38661;53.152;5.846;2023-07-16T10:35:19;10.55;;;4.82;;
52786;SDS011;38661;53.152;5.846;2023-07-16T10:37:44;10.55;;;4.80;;
52786;SDS011;38661;53.152;5.846;2023-07-16T10:40:11;10.00;;;5.00;;
52786;SDS011;38661;53.152;5.846;2023-07-16T10:42:39;10.68;;;4.78;;
52786;SDS011;38661;53.152;5.846;2023-07-16T10:45:07;12.98;;;4.75;;
52786;SDS011;38661;53.152;5.846;2023-07-16T10:47:37;10.77;;;5.35;;
52786;SDS011;38661;53.152;5.846;2023-07-16T10:50:15;9.30;;;4.05;;
52786;SDS011;38661;53.152;5.846;2023-07-16T10:52:41;9.70;;;4.82;;
52786;SDS011;38661;53.152;5.846;2023-07-16T10:55:07;13.38;;;4.10;;
52786;SDS011;38661;53.152;5.846;2023-07-16T10:57:32;9.85;;;4.13;;
52786;SDS011;38661;53.152;5.846;2023-07-16T10:59:58;13.60;;;4.60;;
52786;SDS011;38661;53.152;5.846;2023-07-16T11:02:29;7.97;;;4.43;;
52786;SDS011;38661;53.152;5.846;2023-07-16T11:04:55;13.32;;;3.83;;
52786;SDS011;38661;53.152;5.846;2023-07-16T11:07:23;11.57;;;4.30;;
52786;SDS011;38661;53.152;5.846;2023-07-16T11:09:49;11.20;;;4.65;;
52786;SDS011;38661;53.152;5.846;2023-07-16T11:12:20;12.60;;;4.25;;
52786;SDS011;38661;53.152;5.846;2023-07-16T11:14:48;9.20;;;4.13;;
52786;SDS011;38661;53.152;5.846;2023-07-16T11:17:18;19.25;;;3.42;;
52786;SDS011;38661;53.152;5.846;2023-07-16T11:19:46;14.23;;;4.55;;
52786;SDS011;38661;53.152;5.846;2023-07-16T11:22:13;9.68;;;4.03;;
52786;SDS011;38661;53.152;5.846;2023-07-16T11:24:40;15.88;;;4.53;;
52786;SDS011;38661;53.152;5.846;2023-07-16T11:27:20;12.10;;;4.13;;
52786;SDS011;38661;53.152;5.846;2023-07-16T11:29:51;12.65;;;3.50;;
52786;SDS011;38661;53.152;5.846;2023-07-16T11:35:06;10.63;;;3.38;;
52786;SDS011;38661;53.152;5.846;2023-07-16T11:37:33;13.07;;;3.60;;
52786;SDS011;38661;53.152;5.846;2023-07-16T11:40:01;14.32;;;4.22;;
52786;SDS011;38661;53.152;5.846;2023-07-16T11:45:02;14.23;;;4.38;;
52786;SDS011;38661;53.152;5.846;2023-07-16T11:47:29;11.85;;;3.90;;
52786;SDS011;38661;53.152;5.846;2023-07-16T11:49:55;12.88;;;4.03;;
52786;SDS011;38661;53.152;5.846;2023-07-16T11:52:25;17.17;;;4.82;;
52786;SDS011;38661;53.152;5.846;2023-07-16T11:54:52;11.82;;;3.38;;
52786;SDS011;38661;53.152;5.846;2023-07-16T11:57:19;13.30;;;3.95;;
52786;SDS011;38661;53.152;5.846;2023-07-16T11:59:45;15.57;;;4.20;;
52786;SDS011;38661;53.152;5.846;2023-07-16T12:02:11;12.27;;;3.55;;
52786;SDS011;38661;53.152;5.846;2023-07-16T12:04:40;13.65;;;4.22;;
52786;SDS011;38661;53.152;5.846;2023-07-16T12:07:06;21.05;;;5.13;;
52786;SDS011;38661;53.152;5.846;2023-07-16T12:09:32;12.20;;;4.50;;
52786;SDS011;38661;53.152;5.846;2023-07-16T12:11:59;13.88;;;5.32;;
52786;SDS011;38661;53.152;5.846;2023-07-16T12:14:25;12.50;;;3.97;;
52786;SDS011;38661;53.152;5.846;2023-07-16T12:16:52;13.57;;;4.43;;
52786;SDS011;38661;53.152;5.846;2023-07-16T12:19:18;12.05;;;4.05;;
52786;SDS011;38661;53.152;5.846;2023-07-16T12:21:44;12.15;;;3.85;;
52786;SDS011;38661;53.152;5.846;2023-07-16T12:24:09;19.13;;;5.53;;
52786;SDS011;38661;53.152;5.846;2023-07-16T12:26:35;18.10;;;5.97;;
52786;SDS011;38661;53.152;5.846;2023-07-16T12:29:01;13.80;;;5.60;;
52786;SDS011;38661;53.152;5.846;2023-07-16T12:31:30;11.38;;;4.32;;
52786;SDS011;38661;53.152;5.846;2023-07-16T12:33:57;15.90;;;4.88;;
52786;SDS011;38661;53.152;5.846;2023-07-16T12:36:23;15.05;;;4.68;;
52786;SDS011;38661;53.152;5.846;2023-07-16T12:38:49;19.48;;;5.53;;
52786;SDS011;38661;53.152;5.846;2023-07-16T12:41:14;14.20;;;4.50;;
52786;SDS011;38661;53.152;5.846;2023-07-16T12:43:41;13.23;;;4.93;;
52786;SDS011;38661;53.152;5.846;2023-07-16T12:46:07;16.45;;;4.57;;
52786;SDS011;38661;53.152;5.846;2023-07-16T12:48:34;14.35;;;4.10;;
52786;SDS011;38661;53.152;5.846;2023-07-16T12:51:00;10.65;;;3.42;;
52786;SDS011;38661;53.152;5.846;2023-07-16T12:53:25;14.38;;;4.32;;
52786;SDS011;38661;53.152;5.846;2023-07-16T12:55:51;18.17;;;4.95;;
52786;SDS011;38661;53.152;5.846;2023-07-16T12:58:18;14.88;;;3.60;;
52786;SDS011;38661;53.152;5.846;2023-07-16T13:00:44;13.02;;;3.88;;
52786;SDS011;38661;53.152;5.846;2023-07-16T13:03:10;16.30;;;3.88;;
52786;SDS011;38661;53.152;5.846;2023-07-16T13:05:40;14.50;;;4.18;;
52786;SDS011;38661;53.152;5.846;2023-07-16T13:08:06;20.23;;;4.35;;
52786;SDS011;38661;53.152;5.846;2023-07-16T13:10:32;17.23;;;3.67;;
52786;SDS011;38661;53.152;5.846;2023-07-16T13:12:58;10.93;;;4.50;;
52786;SDS011;38661;53.152;5.846;2023-07-16T13:15:24;16.88;;;4.82;;
52786;SDS011;38661;53.152;5.846;2023-07-16T13:17:49;18.92;;;4.50;;
52786;SDS011;38661;53.152;5.846;2023-07-16T13:20:15;15.93;;;4.90;;
52786;SDS011;38661;53.152;5.846;2023-07-16T13:22:41;17.23;;;4.50;;
52786;SDS011;38661;53.152;5.846;2023-07-16T13:25:07;14.75;;;3.83;;
52786;SDS011;38661;53.152;5.846;2023-07-16T13:27:33;17.70;;;4.78;;
52786;SDS011;38661;53.152;5.846;2023-07-16T13:29:59;14.30;;;3.50;;
52786;SDS011;38661;53.152;5.846;2023-07-16T13:32:24;15.50;;;4.43;;
52786;SDS011;38661;53.152;5.846;2023-07-16T13:34:50;15.63;;;4.22;;
52786;SDS011;38661;53.152;5.846;2023-07-16T13:37:16;15.18;;;4.25;;
52786;SDS011;38661;53.152;5.846;2023-07-16T13:39:42;15.93;;;4.13;;
52786;SDS011;38661;53.152;5.846;2023-07-16T13:42:07;14.13;;;4.00;;
52786;SDS011;38661;53.152;5.846;2023-07-16T13:44:33;14.70;;;4.10;;
52786;SDS011;38661;53.152;5.846;2023-07-16T13:46:59;17.90;;;4.03;;
52786;SDS011;38661;53.152;5.846;2023-07-16T13:49:25;16.55;;;3.90;;
52786;SDS011;38661;53.152;5.846;2023-07-16T13:51:51;13.82;;;3.38;;
52786;SDS011;38661;53.152;5.846;2023-07-16T13:54:16;19.60;;;4.00;;
52786;SDS011;38661;53.152;5.846;2023-07-16T13:56:42;8.88;;;3.25;;
52786;SDS011;38661;53.152;5.846;2023-07-16T13:59:08;13.10;;;3.20;;
52786;SDS011;38661;53.152;5.846;2023-07-16T14:01:37;13.70;;;3.67;;
52786;SDS011;38661;53.152;5.846;2023-07-16T14:04:04;12.93;;;3.58;;
52786;SDS011;38661;53.152;5.846;2023-07-16T14:06:30;13.70;;;3.13;;
52786;SDS011;38661;53.152;5.846;2023-07-16T14:08:55;7.60;;;2.97;;
52786;SDS011;38661;53.152;5.846;2023-07-16T14:11:22;14.52;;;2.85;;
52786;SDS011;38661;53.152;5.846;2023-07-16T14:13:48;12.32;;;3.25;;
52786;SDS011;38661;53.152;5.846;2023-07-16T14:16:18;14.65;;;3.17;;
52786;SDS011;38661;53.152;5.846;2023-07-16T14:18:49;9.88;;;3.33;;
52786;SDS011;38661;53.152;5.846;2023-07-16T14:21:20;12.25;;;2.55;;
52786;SDS011;38661;53.152;5.846;2023-07-16T14:23:45;12.20;;;3.72;;
52786;SDS011;38661;53.152;5.846;2023-07-16T14:26:11;10.10;;;3.47;;
52786;SDS011;38661;53.152;5.846;2023-07-16T14:28:37;13.98;;;3.30;;
52786;SDS011;38661;53.152;5.846;2023-07-16T14:31:03;12.65;;;3.53;;
52786;SDS011;38661;53.152;5.846;2023-07-16T14:33:33;6.97;;;2.80;;
52786;SDS011;38661;53.152;5.846;2023-07-16T14:35:58;11.30;;;3.33;;
52786;SDS011;38661;53.152;5.846;2023-07-16T14:38:24;8.60;;;2.78;;
52786;SDS011;38661;53.152;5.846;2023-07-16T14:40:50;8.45;;;2.97;;
52786;SDS011;38661;53.152;5.846;2023-07-16T14:43:16;12.45;;;3.17;;
52786;SDS011;38661;53.152;5.846;2023-07-16T14:45:43;8.48;;;2.53;;
52786;SDS011;38661;53.152;5.846;2023-07-16T14:48:09;14.38;;;3.35;;